createdAt,value
2022-07-26T00:00:39.260Z,9.757501
2022-07-26T00:01:39.389Z,9.757500
2022-07-26T00:02:39.250Z,9.757525
2022-07-26T00:03:40.190Z,9.757284
2022-07-26T00:04:39.167Z,9.757483
2022-07-26T00:05:39.165Z,9.757452
2022-07-26T00:06:39.177Z,9.757491
2022-07-26T00:07:39.139Z,9.757425
2022-07-26T00:08:39.320Z,9.757468
2022-07-26T00:09:39.320Z,9.757480
2022-07-26T00:10:39.335Z,9.757446
2022-07-26T00:11:39.285Z,9.757489
2022-07-26T00:12:39.336Z,9.757452
2022-07-26T00:13:39.341Z,9.757490
2022-07-26T00:14:39.258Z,9.757549
2022-07-26T00:15:39.211Z,9.757525
2022-07-26T00:16:39.305Z,9.757470
2022-07-26T00:17:39.216Z,9.757434
2022-07-26T00:18:39.049Z,9.757427
2022-07-26T00:19:39.060Z,9.757481
2022-07-26T00:20:39.029Z,9.757348
2022-07-26T00:21:40.663Z,9.757385
2022-07-26T00:22:39.029Z,9.757542
2022-07-26T00:23:39.019Z,9.757571
2022-07-26T00:24:39.003Z,9.757544
2022-07-26T00:25:38.995Z,9.757587
2022-07-26T00:26:39.024Z,9.757621
2022-07-26T00:27:38.981Z,9.757576
2022-07-26T00:28:38.966Z,9.757634
2022-07-26T00:29:38.947Z,9.757500
2022-07-26T00:30:39.949Z,9.757518
2022-07-26T00:31:39.033Z,9.757357
2022-07-26T00:32:38.926Z,9.757371
2022-07-26T00:33:38.930Z,9.757413
2022-07-26T00:34:38.919Z,9.757624
2022-07-26T00:35:38.912Z,9.757475
2022-07-26T00:36:41.868Z,9.757435
2022-07-26T00:37:38.894Z,9.758200
2022-07-26T00:38:38.886Z,9.758265
2022-07-26T00:39:38.883Z,9.758231
2022-07-26T00:40:38.872Z,9.757682
2022-07-26T00:41:38.887Z,9.757565
2022-07-26T00:42:38.856Z,9.757713
2022-07-26T00:43:38.845Z,9.757413
2022-07-26T00:44:38.840Z,9.757339
2022-07-26T00:45:38.921Z,9.757298
2022-07-26T00:46:38.899Z,9.757307
2022-07-26T00:47:38.816Z,9.757397
2022-07-26T00:48:38.862Z,9.757328
2022-07-26T00:49:38.805Z,9.757427
2022-07-26T00:50:38.788Z,9.757331
2022-07-26T00:51:38.808Z,9.757678
2022-07-26T00:52:38.788Z,9.757565
2022-07-26T00:53:38.764Z,9.757579
2022-07-26T00:54:38.758Z,9.757708
2022-07-26T00:55:38.756Z,9.757726
2022-07-26T00:56:38.782Z,9.757721
2022-07-26T00:57:38.737Z,9.757824
2022-07-26T00:58:38.733Z,9.758055
2022-07-26T00:59:38.717Z,9.757833
2022-07-26T01:00:38.712Z,9.757986
2022-07-26T01:01:38.850Z,9.757929
2022-07-26T01:02:38.738Z,9.757941
2022-07-26T01:03:39.853Z,9.757769
2022-07-26T01:04:38.678Z,9.757777
2022-07-26T01:05:38.669Z,9.757759
2022-07-26T01:06:38.696Z,9.757791
2022-07-26T01:07:38.645Z,9.757887
2022-07-26T01:08:38.636Z,9.757944
2022-07-26T01:09:38.638Z,9.757822
2022-07-26T01:10:38.623Z,9.757795
2022-07-26T01:11:38.645Z,9.757798
2022-07-26T01:12:38.613Z,9.757806
2022-07-26T01:13:38.605Z,9.757853
2022-07-26T01:14:38.591Z,9.757822
2022-07-26T01:15:38.613Z,9.757993
2022-07-26T01:16:38.722Z,9.757974
2022-07-26T01:17:38.666Z,9.757868
2022-07-26T01:18:38.575Z,9.757425
2022-07-26T01:19:38.572Z,9.757777
2022-07-26T01:20:38.539Z,9.757913
2022-07-26T01:21:38.559Z,9.757803
2022-07-26T01:22:38.535Z,9.757723
2022-07-26T01:23:38.517Z,9.757722
2022-07-26T01:24:38.515Z,9.757748
2022-07-26T01:25:42.396Z,9.757881
2022-07-26T01:26:39.529Z,9.757752
2022-07-26T01:27:38.486Z,9.757690
2022-07-26T01:28:38.472Z,9.757874
2022-07-26T01:29:38.468Z,9.757757
2022-07-26T01:30:38.465Z,9.757724
2022-07-26T01:31:38.546Z,9.757766
2022-07-26T01:32:38.779Z,9.757949
2022-07-26T01:33:38.445Z,9.757969
2022-07-26T01:34:38.427Z,9.757979
2022-07-26T01:35:38.419Z,9.757895
2022-07-26T01:36:38.440Z,9.758036
2022-07-26T01:37:38.406Z,9.757798
2022-07-26T01:38:38.395Z,9.757930
2022-07-26T01:39:38.383Z,9.757741
2022-07-26T01:40:38.373Z,9.758068
2022-07-26T01:41:38.618Z,9.757637
2022-07-26T01:42:38.365Z,9.757407
2022-07-26T01:43:38.347Z,9.757309
2022-07-26T01:44:38.348Z,9.757406
2022-07-26T01:45:38.360Z,9.757595
2022-07-26T01:46:38.361Z,9.757530
2022-07-26T01:47:38.326Z,9.757526
2022-07-26T01:48:38.356Z,9.757403
2022-07-26T01:49:38.301Z,9.757502
2022-07-26T01:50:38.296Z,9.757517
2022-07-26T01:51:38.310Z,9.757328
2022-07-26T01:52:38.276Z,9.757382
2022-07-26T01:53:38.268Z,9.757386
2022-07-26T01:54:39.263Z,9.757450
2022-07-26T01:55:38.255Z,9.757439
2022-07-26T01:56:38.275Z,9.757496
2022-07-26T01:57:38.238Z,9.757455
2022-07-26T01:58:38.242Z,9.757477
2022-07-26T01:59:38.213Z,9.757511
2022-07-26T02:00:38.208Z,9.757467
2022-07-26T02:01:40.195Z,9.757550
2022-07-26T02:02:38.329Z,9.757565
2022-07-26T02:03:38.187Z,9.757591
2022-07-26T02:04:38.190Z,9.757499
2022-07-26T02:05:38.157Z,9.757662
2022-07-26T02:06:38.157Z,9.757470
2022-07-26T02:07:38.191Z,9.757457
2022-07-26T02:08:38.149Z,9.757624
2022-07-26T02:09:39.768Z,9.757428
2022-07-26T02:10:38.130Z,9.757687
2022-07-26T02:11:38.117Z,9.757786
2022-07-26T02:12:38.137Z,9.757611
2022-07-26T02:13:38.099Z,9.757494
2022-07-26T02:14:38.092Z,9.757627
2022-07-26T02:15:38.177Z,9.757533
2022-07-26T02:16:38.077Z,9.757592
2022-07-26T02:17:38.096Z,9.757539
2022-07-26T02:18:38.053Z,9.757419
2022-07-26T02:19:38.053Z,9.757515
2022-07-26T02:20:38.039Z,9.757494
2022-07-26T02:21:38.032Z,9.757512
2022-07-26T02:22:38.062Z,9.757646
2022-07-26T02:23:41.646Z,9.757639
2022-07-26T02:24:38.006Z,9.758006
2022-07-26T02:25:38.001Z,9.757663
2022-07-26T02:26:37.995Z,9.757565
2022-07-26T02:27:38.017Z,9.757559
2022-07-26T02:28:37.996Z,9.757505
2022-07-26T02:29:37.971Z,9.757440
2022-07-26T02:30:37.965Z,9.757473
2022-07-26T02:31:38.010Z,9.757354
2022-07-26T02:32:37.977Z,9.757484
2022-07-26T02:33:37.943Z,9.757554
2022-07-26T02:34:37.928Z,9.757744
2022-07-26T02:35:37.923Z,9.757629
2022-07-26T02:36:37.921Z,9.757528
2022-07-26T02:37:43.904Z,9.757505
2022-07-26T02:38:38.910Z,9.757346
2022-07-26T02:39:37.888Z,9.757420
2022-07-26T02:40:37.884Z,9.757493
2022-07-26T02:41:37.896Z,9.757545
2022-07-26T02:42:37.896Z,9.757804
2022-07-26T02:43:37.858Z,9.757638
2022-07-26T02:44:37.847Z,9.757499
2022-07-26T02:45:37.839Z,9.757607
2022-07-26T02:46:37.882Z,9.757942
2022-07-26T02:47:37.855Z,9.757832
2022-07-26T02:48:37.838Z,9.757853
2022-07-26T02:49:37.807Z,9.757748
2022-07-26T02:50:37.803Z,9.757792
2022-07-26T02:51:37.792Z,9.757834
2022-07-26T02:52:37.816Z,9.757756
2022-07-26T02:53:37.774Z,9.757957
2022-07-26T02:54:37.766Z,9.757695
2022-07-26T02:55:37.767Z,9.757640
2022-07-26T02:56:37.776Z,9.757600
2022-07-26T02:57:46.578Z,9.757545
2022-07-26T02:58:38.739Z,9.757375
2022-07-26T02:59:37.733Z,9.757502
2022-07-26T03:00:37.723Z,9.757566
2022-07-26T03:01:37.746Z,9.757524
2022-07-26T03:02:37.792Z,9.757513
2022-07-26T03:03:38.299Z,9.757636
2022-07-26T03:04:37.684Z,9.757484
2022-07-26T03:05:37.674Z,9.757470
2022-07-26T03:06:37.671Z,9.757437
2022-07-26T03:07:37.684Z,9.757417
2022-07-26T03:08:37.653Z,9.757899
2022-07-26T03:09:37.648Z,9.757530
2022-07-26T03:10:37.640Z,9.757585
2022-07-26T03:11:37.625Z,9.757618
2022-07-26T03:12:37.646Z,9.757544
2022-07-26T03:13:37.614Z,9.757565
2022-07-26T03:14:37.600Z,9.757639
2022-07-26T03:15:37.651Z,9.757611
2022-07-26T03:16:37.611Z,9.757493
2022-07-26T03:17:37.609Z,9.757516
2022-07-26T03:18:37.583Z,9.757723
2022-07-26T03:19:37.563Z,9.757689
2022-07-26T03:20:37.573Z,9.757598
2022-07-26T03:21:37.552Z,9.757625
2022-07-26T03:22:37.581Z,9.757521
2022-07-26T03:23:37.538Z,9.757833
2022-07-26T03:24:37.530Z,9.757548
2022-07-26T03:25:37.748Z,9.757607
2022-07-26T03:26:37.515Z,9.757554
2022-07-26T03:27:37.612Z,9.757601
2022-07-26T03:28:37.492Z,9.757560
2022-07-26T03:29:37.489Z,9.757535
2022-07-26T03:30:37.482Z,9.757477
2022-07-26T03:31:37.530Z,9.757405
2022-07-26T03:32:37.494Z,9.757394
2022-07-26T03:33:37.457Z,9.757441
2022-07-26T03:34:37.449Z,9.757402
2022-07-26T03:35:37.436Z,9.757424
2022-07-26T03:36:37.432Z,9.757431
2022-07-26T03:37:44.822Z,9.757520
2022-07-26T03:38:38.409Z,9.757522
2022-07-26T03:39:37.408Z,9.757520
2022-07-26T03:40:37.393Z,9.757550
2022-07-26T03:41:37.388Z,9.757476
2022-07-26T03:42:37.412Z,9.757583
2022-07-26T03:43:37.365Z,9.757586
2022-07-26T03:44:37.366Z,9.757708
2022-07-26T03:45:37.357Z,9.757602
2022-07-26T03:46:37.378Z,9.757569
2022-07-26T03:47:37.435Z,9.757556
2022-07-26T03:48:37.374Z,9.757721
2022-07-26T03:49:37.325Z,9.757566
2022-07-26T03:50:37.328Z,9.757268
2022-07-26T03:51:37.308Z,9.757437
2022-07-26T03:52:37.332Z,9.757445
2022-07-26T03:53:37.294Z,9.757477
2022-07-26T03:54:37.277Z,9.757441
2022-07-26T03:55:37.272Z,9.757481
2022-07-26T03:56:37.265Z,9.757407
2022-07-26T03:57:37.281Z,9.757338
2022-07-26T03:58:37.394Z,9.757417
2022-07-26T03:59:37.243Z,9.757471
2022-07-26T04:00:37.230Z,9.757440
2022-07-26T04:01:37.276Z,9.757403
2022-07-26T04:02:37.292Z,9.757475
2022-07-26T04:03:37.206Z,9.757453
2022-07-26T04:04:37.201Z,9.757447
2022-07-26T04:05:37.184Z,9.757406
2022-07-26T04:06:37.182Z,9.757460
2022-07-26T04:07:37.203Z,9.757453
2022-07-26T04:08:37.170Z,9.757459
2022-07-26T04:09:37.161Z,9.757426
2022-07-26T04:10:37.150Z,9.757385
2022-07-26T04:11:37.149Z,9.757467
2022-07-26T04:12:37.179Z,9.757419
2022-07-26T04:13:37.147Z,9.757441
2022-07-26T04:14:37.122Z,9.757417
2022-07-26T04:15:37.109Z,9.757417
2022-07-26T04:16:42.935Z,9.757458
2022-07-26T04:17:39.118Z,9.757483
2022-07-26T04:18:37.082Z,9.757433
2022-07-26T04:19:37.443Z,9.757373
2022-07-26T04:20:37.063Z,9.757343
2022-07-26T04:21:37.064Z,9.757416
2022-07-26T04:22:37.116Z,9.757301
2022-07-26T04:23:37.048Z,9.757393
2022-07-26T04:24:37.036Z,9.757443
2022-07-26T04:25:40.878Z,9.757472
2022-07-26T04:26:37.017Z,9.757450
2022-07-26T04:27:37.010Z,9.757443
2022-07-26T04:28:37.029Z,9.757478
2022-07-26T04:29:36.992Z,9.757478
2022-07-26T04:30:37.059Z,9.757244
2022-07-26T04:31:36.996Z,9.757305
2022-07-26T04:32:36.968Z,9.757399
2022-07-26T04:33:36.993Z,9.757443
2022-07-26T04:34:36.971Z,9.757424
2022-07-26T04:35:36.954Z,9.757236
2022-07-26T04:36:36.938Z,9.757442
2022-07-26T04:37:36.925Z,9.757541
2022-07-26T04:38:36.960Z,9.757673
2022-07-26T04:39:36.913Z,9.757496
2022-07-26T04:40:40.658Z,9.757656
2022-07-26T04:41:36.892Z,9.757659
2022-07-26T04:42:37.810Z,9.757593
2022-07-26T04:43:36.909Z,9.757682
2022-07-26T04:44:36.875Z,9.757481
2022-07-26T04:45:36.942Z,9.757605
2022-07-26T04:46:36.892Z,9.757571
2022-07-26T04:47:36.853Z,9.757545
2022-07-26T04:48:36.894Z,9.757497
2022-07-26T04:49:36.831Z,9.757570
2022-07-26T04:50:36.845Z,9.757575
2022-07-26T04:51:36.812Z,9.757504
2022-07-26T04:52:36.811Z,9.757654
2022-07-26T04:53:36.820Z,9.757500
2022-07-26T04:54:36.800Z,9.757458
2022-07-26T04:55:36.784Z,9.757483
2022-07-26T04:56:36.772Z,9.757462
2022-07-26T04:57:36.762Z,9.757579
2022-07-26T04:58:36.806Z,9.757443
2022-07-26T04:59:36.744Z,9.757576
2022-07-26T05:00:56.499Z,9.757487
2022-07-26T05:01:38.762Z,9.757664
2022-07-26T05:02:36.778Z,9.757580
2022-07-26T05:03:36.747Z,9.757565
2022-07-26T05:04:36.698Z,9.757463
2022-07-26T05:05:36.696Z,9.757488
2022-07-26T05:06:36.694Z,9.757512
2022-07-26T05:07:36.705Z,9.757452
2022-07-26T05:08:36.698Z,9.757536
2022-07-26T05:09:36.661Z,9.757478
2022-07-26T05:10:36.653Z,9.757505
2022-07-26T05:11:36.645Z,9.757520
2022-07-26T05:12:36.636Z,9.757503
2022-07-26T05:13:36.661Z,9.757554
2022-07-26T05:14:36.622Z,9.757499
2022-07-26T05:15:36.628Z,9.757475
2022-07-26T05:16:39.101Z,9.757534
2022-07-26T05:17:38.611Z,9.757533
2022-07-26T05:18:45.863Z,9.757476
2022-07-26T05:19:37.579Z,9.757522
2022-07-26T05:20:36.569Z,9.757585
2022-07-26T05:21:36.577Z,9.757517
2022-07-26T05:22:36.552Z,9.757449
2022-07-26T05:23:36.596Z,9.757430
2022-07-26T05:24:36.535Z,9.757420
2022-07-26T05:25:36.530Z,9.757466
2022-07-26T05:26:36.524Z,9.757526
2022-07-26T05:27:36.512Z,9.757515
2022-07-26T05:28:36.539Z,9.757501
2022-07-26T05:29:36.497Z,9.757572
2022-07-26T05:30:36.544Z,9.757590
2022-07-26T05:31:36.484Z,9.757472
2022-07-26T05:32:36.473Z,9.757385
2022-07-26T05:33:36.482Z,9.757480
2022-07-26T05:34:37.468Z,9.757524
2022-07-26T05:35:36.450Z,9.757559
2022-07-26T05:36:36.441Z,9.757462
2022-07-26T05:37:36.427Z,9.757390
2022-07-26T05:38:36.440Z,9.757405
2022-07-26T05:39:37.409Z,9.757435
2022-07-26T05:40:36.422Z,9.757468
2022-07-26T05:41:36.404Z,9.757442
2022-07-26T05:42:36.412Z,9.757424
2022-07-26T05:43:41.519Z,9.757363
2022-07-26T05:44:42.432Z,9.757421
2022-07-26T05:45:37.441Z,9.757422
2022-07-26T05:46:36.377Z,9.757503
2022-07-26T05:47:36.350Z,9.757444
2022-07-26T05:48:36.440Z,9.757100
2022-07-26T05:49:40.213Z,9.757341
2022-07-26T05:50:36.323Z,9.757412
2022-07-26T05:51:36.317Z,9.757463
2022-07-26T05:52:36.307Z,9.757507
2022-07-26T05:53:36.324Z,9.757662
2022-07-26T05:54:37.291Z,9.757537
2022-07-26T05:55:36.284Z,9.757472
2022-07-26T05:56:36.276Z,9.757455
2022-07-26T05:57:36.266Z,9.757489
2022-07-26T05:58:36.290Z,9.757458
2022-07-26T05:59:36.262Z,9.757458
2022-07-26T06:00:36.248Z,9.757534
2022-07-26T06:01:36.236Z,9.757632
2022-07-26T06:02:36.275Z,9.757516
2022-07-26T06:03:36.248Z,9.757570
2022-07-26T06:04:36.308Z,9.757437
2022-07-26T06:05:36.203Z,9.757492
2022-07-26T06:06:36.192Z,9.757386
2022-07-26T06:07:36.186Z,9.757528
2022-07-26T06:08:36.217Z,9.757318
2022-07-26T06:09:36.171Z,9.757237
2022-07-26T06:10:36.171Z,9.757434
2022-07-26T06:11:36.156Z,9.757320
2022-07-26T06:12:36.149Z,9.757185
2022-07-26T06:13:36.174Z,9.757287
2022-07-26T06:14:36.125Z,9.757375
2022-07-26T06:15:36.147Z,9.757492
2022-07-26T06:16:36.153Z,9.757467
2022-07-26T06:17:36.145Z,9.757407
2022-07-26T06:18:36.129Z,9.757449
2022-07-26T06:19:37.095Z,9.757449
2022-07-26T06:20:36.079Z,9.757549
2022-07-26T06:21:36.073Z,9.757433
2022-07-26T06:22:36.070Z,9.757364
2022-07-26T06:23:36.078Z,9.757554
2022-07-26T06:24:36.047Z,9.757471
2022-07-26T06:25:36.043Z,9.757463
2022-07-26T06:26:36.036Z,9.757649
2022-07-26T06:27:36.023Z,9.757517
2022-07-26T06:28:36.040Z,9.757517
2022-07-26T06:29:36.010Z,9.757565
2022-07-26T06:30:36.011Z,9.757534
2022-07-26T06:31:36.044Z,9.757606
2022-07-26T06:32:50.587Z,9.757667
2022-07-26T06:33:36.008Z,9.757439
2022-07-26T07:08:21.299Z,9.757572
2022-07-26T07:09:21.309Z,9.757460
2022-07-26T07:10:23.795Z,9.757201
2022-07-26T07:11:21.273Z,9.757275
2022-07-26T07:12:21.261Z,9.757544
2022-07-26T07:13:21.256Z,9.757500
2022-07-26T07:14:21.291Z,9.757301
2022-07-26T07:15:21.267Z,9.757360
2022-07-26T07:16:21.290Z,9.757395
2022-07-26T07:17:21.228Z,9.757417
2022-07-26T07:18:21.206Z,9.757271
2022-07-26T07:19:21.235Z,9.757383
2022-07-26T07:20:21.205Z,9.757458
2022-07-26T07:21:21.194Z,9.757296
2022-07-26T07:22:21.166Z,9.757299
2022-07-26T07:23:22.190Z,9.757299
2022-07-26T07:24:21.192Z,9.757887
2022-07-26T07:25:25.747Z,9.757657
2022-07-26T07:26:23.147Z,9.757622
2022-07-26T07:27:21.135Z,9.757555
2022-07-26T07:28:21.122Z,9.757511
2022-07-26T07:29:21.168Z,9.757500
2022-07-26T07:30:21.380Z,9.757628
2022-07-26T07:31:23.644Z,9.757612
2022-07-26T07:32:22.298Z,9.757555
2022-07-26T07:33:22.308Z,9.757629
2022-07-26T07:34:22.077Z,9.757573
2022-07-26T07:35:22.022Z,9.757445
2022-07-26T07:36:21.073Z,9.757353
2022-07-26T07:37:21.053Z,9.757391
2022-07-26T07:38:22.438Z,9.757524
2022-07-26T07:39:22.029Z,9.757468
2022-07-26T07:40:21.052Z,9.757550
2022-07-26T07:41:21.025Z,9.757505
2022-07-26T07:42:21.014Z,9.757636
2022-07-26T07:43:21.325Z,9.757564
2022-07-26T07:44:21.034Z,9.757403
2022-07-26T07:45:20.985Z,9.757453
2022-07-26T07:46:21.025Z,9.757431
2022-07-26T07:47:20.973Z,9.757448
2022-07-26T07:48:20.964Z,9.757483
2022-07-26T07:49:21.041Z,9.757625
2022-07-26T07:50:21.013Z,9.757483
2022-07-26T07:51:20.943Z,9.757436
2022-07-26T07:52:20.950Z,9.757470
2022-07-26T07:53:20.932Z,9.757465
2022-07-26T07:54:22.264Z,9.757490
2022-07-26T07:55:36.379Z,9.757443
2022-07-26T07:56:21.913Z,9.757436
2022-07-26T07:57:20.900Z,9.757436
2022-07-26T07:58:20.899Z,9.757378
2022-07-26T07:59:20.919Z,9.757380
2022-07-26T08:00:27.216Z,9.757498
2022-07-26T08:01:21.927Z,9.757367
2022-07-26T08:02:21.266Z,9.757402
2022-07-26T08:03:20.870Z,9.757401
2022-07-26T08:04:20.913Z,9.757279
2022-07-26T08:05:21.655Z,9.757241
2022-07-26T08:06:20.822Z,9.757359
2022-07-26T08:07:20.944Z,9.757505
2022-07-26T08:08:22.583Z,9.757393
2022-07-26T08:09:20.840Z,9.757371
2022-07-26T08:10:20.926Z,9.757493
2022-07-26T08:11:20.806Z,9.757377
2022-07-26T08:12:20.789Z,9.757359
2022-07-26T08:13:21.706Z,9.757298
2022-07-26T08:14:20.779Z,9.757289
2022-07-26T08:15:21.372Z,9.757407
2022-07-26T08:16:20.804Z,9.757483
2022-07-26T08:17:20.741Z,9.757318
2022-07-26T08:18:22.505Z,9.757208
2022-07-26T08:19:20.718Z,9.757154
2022-07-26T08:20:20.761Z,9.757141
2022-07-26T08:21:20.713Z,9.757347
2022-07-26T08:22:20.705Z,9.757332
2022-07-26T08:23:20.692Z,9.757313
2022-07-26T08:24:20.695Z,9.757382
2022-07-26T08:25:20.712Z,9.757302
2022-07-26T08:26:20.674Z,9.757342
2022-07-26T08:27:20.672Z,9.757420
2022-07-26T08:28:45.126Z,9.757550
2022-07-26T08:29:22.658Z,9.757435
2022-07-26T08:30:20.696Z,9.757380
2022-07-26T08:31:20.705Z,9.757380
2022-07-26T08:32:35.613Z,9.757396
2022-07-26T08:33:20.631Z,9.757396
2022-07-26T08:34:20.633Z,9.757468
2022-07-26T08:35:20.631Z,9.757490
2022-07-26T08:36:20.592Z,9.757438
2022-07-26T08:37:20.593Z,9.757436
2022-07-26T08:38:20.573Z,9.757427
2022-07-26T08:39:20.566Z,9.757433
2022-07-26T08:40:20.601Z,9.757400
2022-07-26T08:41:20.545Z,9.757377
2022-07-26T08:42:22.556Z,9.757346
2022-07-26T08:43:20.556Z,9.757366
2022-07-26T08:44:20.523Z,9.757340
2022-07-26T08:45:20.584Z,9.757299
2022-07-26T08:46:24.779Z,9.757346
2022-07-26T08:47:37.461Z,9.757346
2022-07-26T08:48:21.489Z,9.757387
2022-07-26T08:49:20.521Z,9.757361
2022-07-26T08:50:20.511Z,9.757366
2022-07-26T08:51:20.588Z,9.757357
2022-07-26T08:52:20.474Z,9.757349
2022-07-26T08:53:20.453Z,9.757350
2022-07-26T08:54:20.443Z,9.757314
2022-07-26T08:55:20.473Z,9.757309
2022-07-26T08:56:20.433Z,9.757320
2022-07-26T08:57:20.423Z,9.757297
2022-07-26T08:58:20.429Z,9.757323
2022-07-26T08:59:21.711Z,9.757334
2022-07-26T09:00:21.438Z,9.757358
2022-07-26T09:01:20.588Z,9.757276
2022-07-26T09:02:20.389Z,9.757255
2022-07-26T09:03:20.431Z,9.757291
2022-07-26T09:04:30.850Z,9.757330
2022-07-26T09:05:22.408Z,9.757320
2022-07-26T09:06:20.350Z,9.757347
2022-07-26T09:07:20.355Z,9.757318
2022-07-26T09:08:20.348Z,9.757352
2022-07-26T09:09:20.329Z,9.757333
2022-07-26T09:10:20.372Z,9.757278
2022-07-26T09:11:20.329Z,9.757249
2022-07-26T09:12:20.310Z,9.757222
2022-07-26T09:13:20.299Z,9.757287
2022-07-26T09:14:20.425Z,9.757253
2022-07-26T09:15:20.325Z,9.757442
2022-07-26T09:16:20.296Z,9.757353
2022-07-26T09:17:20.278Z,9.757350
2022-07-26T09:18:20.273Z,9.757411
2022-07-26T09:19:20.261Z,9.757466
2022-07-26T09:20:24.100Z,9.757431
2022-07-26T09:21:21.274Z,9.757413
2022-07-26T09:22:20.234Z,9.757399
2022-07-26T09:23:20.226Z,9.757383
2022-07-26T09:24:20.222Z,9.757363
2022-07-26T09:25:20.243Z,9.757407
2022-07-26T09:26:20.204Z,9.757351
2022-07-26T09:27:21.082Z,9.757412
2022-07-26T09:28:20.185Z,9.757413
2022-07-26T09:29:20.183Z,9.757412
2022-07-26T09:30:20.206Z,9.757393
2022-07-26T09:31:20.202Z,9.757488
2022-07-26T09:32:20.156Z,9.757382
2022-07-26T09:33:20.140Z,9.757437
2022-07-26T09:34:20.330Z,9.757598
2022-07-26T09:35:50.610Z,9.757411
2022-07-26T09:36:22.116Z,9.757589
2022-07-26T09:37:20.114Z,9.757536
2022-07-26T09:38:20.098Z,9.757396
2022-07-26T09:39:27.796Z,9.757447
2022-07-26T09:40:21.119Z,9.757470
2022-07-26T09:41:20.531Z,9.757417
2022-07-26T09:42:28.466Z,9.757432
2022-07-26T09:43:24.403Z,9.757441
2022-07-26T09:44:20.057Z,9.757468
2022-07-26T09:45:20.044Z,9.757471
2022-07-26T09:46:20.242Z,9.757519
2022-07-26T09:47:20.030Z,9.757557
2022-07-26T09:48:20.022Z,9.757601
2022-07-26T09:49:20.084Z,9.757620
2022-07-26T09:50:20.099Z,9.757460
2022-07-26T09:51:20.029Z,9.757495
2022-07-26T09:52:21.020Z,9.756599
2022-07-26T09:53:19.984Z,9.756807
2022-07-26T09:54:20.987Z,9.757443
2022-07-26T09:55:19.967Z,9.757587
2022-07-26T09:56:19.995Z,9.757700
2022-07-26T09:57:19.947Z,9.757483
2022-07-26T09:58:21.012Z,9.757353
2022-07-26T09:59:19.943Z,9.757230
2022-07-26T10:00:19.929Z,9.757548
2022-07-26T10:01:19.971Z,9.757367
2022-07-26T10:02:19.919Z,9.757570
2022-07-26T10:03:19.938Z,9.757696
2022-07-26T10:04:19.898Z,9.757726
2022-07-26T10:05:19.887Z,9.757578
2022-07-26T10:06:19.913Z,9.757571
2022-07-26T10:07:19.890Z,9.757636
2022-07-26T10:08:19.869Z,9.757540
2022-07-26T10:09:19.866Z,9.757470
2022-07-26T10:10:19.847Z,9.757492
2022-07-26T10:11:19.901Z,9.757498
2022-07-26T10:12:19.835Z,9.757456
2022-07-26T10:13:19.834Z,9.757408
2022-07-26T10:14:19.813Z,9.757382
2022-07-26T10:15:19.824Z,9.757512
2022-07-26T10:16:20.682Z,9.757530
2022-07-26T10:17:19.803Z,9.757329
2022-07-26T10:18:19.787Z,9.757477
2022-07-26T10:19:19.775Z,9.757442
2022-07-26T10:20:24.554Z,9.757535
2022-07-26T10:21:20.779Z,9.757623
2022-07-26T10:22:19.761Z,9.757729
2022-07-26T10:23:19.740Z,9.757533
2022-07-26T10:24:19.737Z,9.757443
2022-07-26T10:25:20.717Z,9.757440
2022-07-26T10:26:20.744Z,9.757486
2022-07-26T10:27:19.717Z,9.757476
2022-07-26T10:28:19.703Z,9.757591
2022-07-26T10:29:19.706Z,9.757707
2022-07-26T10:30:19.710Z,9.758052
2022-07-26T10:31:19.772Z,9.757607
2022-07-26T10:32:19.688Z,9.755694
2022-07-26T10:33:19.665Z,9.755316
2022-07-26T10:34:19.658Z,9.755497
2022-07-26T10:35:19.646Z,9.756037
2022-07-26T10:36:19.718Z,9.756998
2022-07-26T10:37:19.642Z,9.757543
2022-07-26T10:38:19.649Z,9.757488
2022-07-26T10:39:19.625Z,9.757431
2022-07-26T10:40:19.613Z,9.757553
2022-07-26T10:41:19.757Z,9.757441
2022-07-26T10:42:19.597Z,9.757495
2022-07-26T10:44:21.569Z,9.757479
2022-07-26T10:45:19.585Z,9.757529
2022-07-26T10:46:19.664Z,9.757501
2022-07-26T10:47:19.553Z,9.757770
2022-07-26T10:48:19.549Z,9.757586
2022-07-26T10:49:19.599Z,9.757711
2022-07-26T10:50:19.533Z,9.757648
2022-07-26T10:51:19.546Z,9.757510
2022-07-26T10:52:19.512Z,9.757591
2022-07-26T10:53:19.502Z,9.757941
2022-07-26T10:54:19.483Z,9.757455
2022-07-26T10:55:20.490Z,9.757597
2022-07-26T10:56:19.518Z,9.757914
2022-07-26T10:57:19.475Z,9.757692
2022-07-26T10:58:19.467Z,9.757622
2022-07-26T10:59:39.158Z,9.757515
2022-07-26T11:00:21.457Z,9.757511
2022-07-26T11:01:19.522Z,9.757570
2022-07-26T11:02:19.473Z,9.757584
2022-07-26T11:03:19.482Z,9.757654
2022-07-26T11:04:19.425Z,9.757647
2022-07-26T11:05:19.402Z,9.757593
2022-07-26T11:06:19.395Z,9.757498
2022-07-26T11:07:19.423Z,9.757485
2022-07-26T11:08:19.386Z,9.757410
2022-07-26T11:09:20.930Z,9.757573
2022-07-26T11:10:19.363Z,9.757707
2022-07-26T11:11:19.359Z,9.757779
2022-07-26T11:12:19.381Z,9.757775
2022-07-26T11:13:19.338Z,9.757533
2022-07-26T11:14:19.338Z,9.757496
2022-07-26T11:15:19.318Z,9.757929
2022-07-26T11:16:19.501Z,9.758171
2022-07-26T11:17:19.362Z,9.757957
2022-07-26T11:18:19.294Z,9.757750
2022-07-26T11:19:19.289Z,9.757547
2022-07-26T11:20:19.282Z,9.757360
2022-07-26T11:21:19.267Z,9.757445
2022-07-26T11:22:20.296Z,9.757404
2022-07-26T11:23:19.252Z,9.757199
2022-07-26T11:24:19.246Z,9.757307
2022-07-26T11:25:19.240Z,9.757380
2022-07-26T11:26:19.224Z,9.757494
2022-07-26T11:27:19.241Z,9.757537
2022-07-26T11:28:19.215Z,9.757434
2022-07-26T11:29:22.623Z,9.757450
2022-07-26T11:30:19.194Z,9.757589
2022-07-26T11:31:20.040Z,9.757637
2022-07-26T11:32:19.388Z,9.757477
2022-07-26T11:33:19.172Z,9.757475
2022-07-26T11:34:19.165Z,9.757439
2022-07-26T11:35:19.167Z,9.757427
2022-07-26T11:36:19.148Z,9.757427
2022-07-26T11:37:19.174Z,9.757445
2022-07-26T11:38:19.126Z,9.757419
2022-07-26T11:39:19.115Z,9.757447
2022-07-26T11:40:19.123Z,9.757440
2022-07-26T11:41:19.110Z,9.757454
2022-07-26T11:42:19.121Z,9.757431
2022-07-26T11:43:19.091Z,9.757374
2022-07-26T11:44:19.096Z,9.757363
2022-07-26T11:45:19.086Z,9.757397
2022-07-26T11:46:19.133Z,9.757454
2022-07-26T11:47:19.090Z,9.757381
2022-07-26T11:48:19.050Z,9.757452
2022-07-26T11:49:19.142Z,9.757451
2022-07-26T11:50:23.144Z,9.757570
2022-07-26T11:51:20.022Z,9.757409
2022-07-26T11:52:24.348Z,9.757417
2022-07-26T11:53:20.122Z,9.757337
2022-07-26T11:54:19.003Z,9.757590
2022-07-26T11:55:19.000Z,9.757445
2022-07-26T11:56:18.979Z,9.757462
2022-07-26T11:57:19.017Z,9.757458
2022-07-26T11:58:18.976Z,9.757412
2022-07-26T11:59:18.974Z,9.757463
2022-07-26T12:00:18.952Z,9.757477
2022-07-26T12:01:18.942Z,9.757470
2022-07-26T12:02:18.970Z,9.757434
2022-07-26T12:03:18.922Z,9.757432
2022-07-26T12:04:19.023Z,9.757462
2022-07-26T12:05:19.518Z,9.757393
2022-07-26T12:06:18.974Z,9.757401
2022-07-26T12:07:18.938Z,9.757470
2022-07-26T12:08:18.878Z,9.757506
2022-07-26T12:09:18.881Z,9.757560
2022-07-26T12:10:18.862Z,9.757457
2022-07-26T12:11:18.854Z,9.757422
2022-07-26T12:12:18.882Z,9.757427
2022-07-26T12:13:18.836Z,9.757386
2022-07-26T12:14:19.093Z,9.757404
2022-07-26T12:15:18.826Z,9.757421
2022-07-26T12:16:18.851Z,9.757486
2022-07-26T12:17:18.844Z,9.757505
2022-07-26T12:18:18.820Z,9.757592
2022-07-26T12:19:19.328Z,9.757482